Time;durP1;ratioP1;P1;durP2;ratioP2;P2;SDS_P1;SDS_P2;PMS_P1;PMS_P2;Temp;Humidity;BMP_temperature;BMP_pressure;BME280_temperature;BME280_humidity;BME280_pressure;Samples;Min_cycle;Max_cycle;Signal;HPM_P1;HPM_P2
2023/07/18 00:00:52;;;;;;;5.05;3.40;;;;;;;;;;5073663;28;20204;-43
2023/07/18 00:03:37;;;;;;;4.30;3.58;;;;;;;;;;5073522;28;20206;-44
2023/07/18 00:06:04;;;;;;;7.05;3.80;;;;;;;;;;5073069;28;20211;-43
2023/07/18 00:08:31;;;;;;;5.70;3.72;;;;;;;;;;5063150;28;20742;-43
2023/07/18 00:10:59;;;;;;;5.55;3.92;;;;;;;;;;5072106;28;20211;-43
2023/07/18 00:13:26;;;;;;;5.22;3.50;;;;;;;;;;5072278;28;20203;-43
2023/07/18 00:15:53;;;;;;;4.90;3.72;;;;;;;;;;5073405;28;20264;-43
2023/07/18 00:18:21;;;;;;;5.70;3.78;;;;;;;;;;5073194;28;20204;-43
2023/07/18 00:20:48;;;;;;;6.88;3.78;;;;;;;;;;5073424;28;20241;-44
2023/07/18 00:23:15;;;;;;;5.45;4.20;;;;;;;;;;5073397;28;20284;-44
2023/07/18 00:25:42;;;;;;;5.40;4.20;;;;;;;;;;5073592;28;20203;-43
2023/07/18 00:28:10;;;;;;;5.35;4.20;;;;;;;;;;5073295;28;20206;-43
2023/07/18 00:30:37;;;;;;;5.53;4.30;;;;;;;;;;5073530;28;20199;-43
2023/07/18 00:33:06;;;;;;;6.60;4.75;;;;;;;;;;5073364;28;20207;-43
2023/07/18 00:35:34;;;;;;;6.55;4.63;;;;;;;;;;5073202;28;20667;-43
2023/07/18 00:38:02;;;;;;;7.40;4.85;;;;;;;;;;5072299;28;20209;-43
2023/07/18 00:40:29;;;;;;;5.90;4.72;;;;;;;;;;5072124;28;20248;-43
2023/07/18 00:42:57;;;;;;;8.02;5.10;;;;;;;;;;5071884;28;20223;-43
2023/07/18 00:45:26;;;;;;;6.25;4.60;;;;;;;;;;5071911;28;20252;-43
2023/07/18 00:47:53;;;;;;;7.55;5.05;;;;;;;;;;5073532;28;20203;-43
2023/07/18 00:50:20;;;;;;;7.30;4.88;;;;;;;;;;5071878;28;20249;-43
2023/07/18 00:52:50;;;;;;;6.55;4.95;;;;;;;;;;5071767;28;20207;-43
2023/07/18 00:55:18;;;;;;;6.65;5.13;;;;;;;;;;5071766;28;20195;-43
2023/07/18 00:57:46;;;;;;;6.88;5.22;;;;;;;;;;5055625;28;20200;-42
2023/07/18 01:00:14;;;;;;;8.85;5.65;;;;;;;;;;5071727;28;20663;-44
2023/07/18 01:02:45;;;;;;;7.40;5.25;;;;;;;;;;5071834;28;20223;-43
2023/07/18 01:05:18;;;;;;;8.40;5.82;;;;;;;;;;5071728;28;20576;-44
2023/07/18 01:07:46;;;;;;;8.48;5.65;;;;;;;;;;5073054;28;20250;-43
2023/07/18 01:10:23;;;;;;;9.50;6.15;;;;;;;;;;5073175;28;20207;-43
2023/07/18 01:12:54;;;;;;;8.27;5.32;;;;;;;;;;5072881;28;20615;-43
2023/07/18 01:15:24;;;;;;;9.32;6.15;;;;;;;;;;5071715;28;20210;-43
2023/07/18 01:17:51;;;;;;;8.13;5.50;;;;;;;;;;5070994;28;20199;-42
2023/07/18 01:20:21;;;;;;;10.88;5.90;;;;;;;;;;5071513;28;20287;-42
2023/07/18 01:22:51;;;;;;;6.95;5.55;;;;;;;;;;5087537;28;20238;-42
2023/07/18 01:25:19;;;;;;;9.80;6.45;;;;;;;;;;5055396;28;20209;-43
2023/07/18 01:27:48;;;;;;;8.18;5.82;;;;;;;;;;5072660;28;20221;-41
2023/07/18 01:30:21;;;;;;;8.23;6.38;;;;;;;;;;5073005;28;20199;-43
2023/07/18 01:32:49;;;;;;;8.23;5.78;;;;;;;;;;5075123;28;20211;-42
2023/07/18 01:35:19;;;;;;;7.43;5.85;;;;;;;;;;5075066;28;20206;-43
2023/07/18 01:37:48;;;;;;;8.23;5.90;;;;;;;;;;5076243;28;20724;-41
2023/07/18 01:40:19;;;;;;;9.48;6.50;;;;;;;;;;5075365;28;20203;-43
2023/07/18 01:42:50;;;;;;;7.75;6.55;;;;;;;;;;5076048;28;20699;-41
2023/07/18 01:45:19;;;;;;;9.63;6.75;;;;;;;;;;5076247;28;20199;-42
2023/07/18 01:47:47;;;;;;;8.63;6.35;;;;;;;;;;5079880;28;20213;-42
2023/07/18 01:50:15;;;;;;;9.15;6.60;;;;;;;;;;5096183;28;20205;-43
2023/07/18 01:52:42;;;;;;;9.00;6.20;;;;;;;;;;5096328;28;20217;-43
2023/07/18 01:55:09;;;;;;;10.35;6.05;;;;;;;;;;5096052;28;20663;-43
2023/07/18 01:57:40;;;;;;;9.95;6.72;;;;;;;;;;5092646;28;20249;-43
2023/07/18 02:00:12;;;;;;;11.27;6.38;;;;;;;;;;5074507;28;20272;-43
2023/07/18 02:02:42;;;;;;;7.22;6.03;;;;;;;;;;5075699;28;20234;-41
2023/07/18 02:05:13;;;;;;;10.43;7.00;;;;;;;;;;5074705;28;20184;-43
2023/07/18 02:07:40;;;;;;;9.55;6.85;;;;;;;;;;5074490;28;20206;-42
2023/07/18 02:10:07;;;;;;;11.23;7.18;;;;;;;;;;5075706;28;20289;-43
2023/07/18 02:12:35;;;;;;;10.13;6.72;;;;;;;;;;5075256;28;20296;-43
2023/07/18 02:15:05;;;;;;;9.57;6.75;;;;;;;;;;5074144;28;20210;-42
2023/07/18 02:17:34;;;;;;;9.02;7.00;;;;;;;;;;5075625;28;20184;-43
2023/07/18 02:20:06;;;;;;;10.75;7.30;;;;;;;;;;5075565;28;20199;-43
2023/07/18 02:22:34;;;;;;;9.93;6.75;;;;;;;;;;5075329;28;20235;-40
2023/07/18 02:25:02;;;;;;;14.52;7.68;;;;;;;;;;5090581;28;20238;-41
2023/07/18 02:27:33;;;;;;;13.15;7.45;;;;;;;;;;5094359;28;20203;-40
2023/07/18 02:30:01;;;;;;;10.93;6.72;;;;;;;;;;5094320;28;20214;-40
2023/07/18 02:32:30;;;;;;;10.60;6.95;;;;;;;;;;5095365;28;20214;-41
2023/07/18 02:34:57;;;;;;;11.20;7.47;;;;;;;;;;5093889;28;20218;-40
2023/07/18 02:37:25;;;;;;;9.88;7.25;;;;;;;;;;5093894;28;20210;-41
2023/07/18 02:39:52;;;;;;;11.27;7.78;;;;;;;;;;5095304;28;20207;-40
2023/07/18 02:42:19;;;;;;;9.85;7.43;;;;;;;;;;5094550;28;20227;-41
2023/07/18 02:44:47;;;;;;;9.73;7.15;;;;;;;;;;5095308;28;20229;-40
2023/07/18 02:47:15;;;;;;;9.70;7.50;;;;;;;;;;5094929;28;20658;-41
2023/07/18 02:49:42;;;;;;;12.10;8.00;;;;;;;;;;5094789;28;20199;-40
2023/07/18 02:52:09;;;;;;;11.10;7.35;;;;;;;;;;5093559;28;20207;-42
2023/07/18 02:54:36;;;;;;;10.75;7.60;;;;;;;;;;5093606;28;20289;-41
2023/07/18 02:57:04;;;;;;;11.68;7.53;;;;;;;;;;5093677;28;20233;-40
2023/07/18 02:59:32;;;;;;;11.40;8.45;;;;;;;;;;5093668;28;20293;-40
2023/07/18 03:01:59;;;;;;;12.00;7.82;;;;;;;;;;5093714;28;20198;-40
2023/07/18 03:04:27;;;;;;;9.35;7.68;;;;;;;;;;5093514;28;20217;-40
2023/07/18 03:06:54;;;;;;;13.77;7.57;;;;;;;;;;5094756;28;20690;-40
2023/07/18 03:09:21;;;;;;;10.35;7.32;;;;;;;;;;5092837;28;20533;-40
2023/07/18 03:11:52;;;;;;;13.80;7.70;;;;;;;;;;5073303;28;20207;-40
2023/07/18 03:14:19;;;;;;;10.65;7.22;;;;;;;;;;5074730;28;20252;-41
2023/07/18 03:16:47;;;;;;;10.35;7.32;;;;;;;;;;5074455;28;20204;-40
2023/07/18 03:19:15;;;;;;;11.00;7.63;;;;;;;;;;5074187;28;20660;-41
2023/07/18 03:21:43;;;;;;;10.63;7.93;;;;;;;;;;5074534;28;20243;-40
2023/07/18 03:24:10;;;;;;;10.63;7.53;;;;;;;;;;5074002;28;20631;-40
2023/07/18 03:26:38;;;;;;;11.65;7.97;;;;;;;;;;5074399;28;20208;-40
2023/07/18 03:29:06;;;;;;;16.92;8.77;;;;;;;;;;5074218;28;20608;-41
2023/07/18 03:31:33;;;;;;;10.27;8.15;;;;;;;;;;5084368;28;20198;-40
2023/07/18 03:34:04;;;;;;;10.50;7.95;;;;;;;;;;5094456;28;20206;-41
2023/07/18 03:36:32;;;;;;;13.07;8.80;;;;;;;;;;5094362;28;20655;-41
2023/07/18 03:38:59;;;;;;;14.75;9.98;;;;;;;;;;5084707;28;20195;-41
2023/07/18 03:41:27;;;;;;;15.48;10.77;;;;;;;;;;5073289;28;20218;-40
2023/07/18 03:43:54;;;;;;;13.65;9.20;;;;;;;;;;5073947;28;20254;-41
2023/07/18 03:46:22;;;;;;;11.80;8.52;;;;;;;;;;5073738;28;20207;-40
2023/07/18 03:48:51;;;;;;;15.60;9.35;;;;;;;;;;5074101;28;20227;-44
2023/07/18 03:51:18;;;;;;;14.55;9.05;;;;;;;;;;5076875;28;20275;-42
2023/07/18 03:53:47;;;;;;;12.77;8.55;;;;;;;;;;5082593;28;20215;-42
2023/07/18 03:56:15;;;;;;;10.73;8.23;;;;;;;;;;5087373;28;20206;-43
2023/07/18 03:58:42;;;;;;;11.38;7.82;;;;;;;;;;5075423;28;20207;-42
2023/07/18 04:01:10;;;;;;;14.00;7.88;;;;;;;;;;5073540;28;20679;-43
2023/07/18 04:03:37;;;;;;;10.30;7.47;;;;;;;;;;5074000;28;20225;-42
2023/07/18 04:06:06;;;;;;;11.07;7.40;;;;;;;;;;5080409;28;20211;-42
2023/07/18 04:08:33;;;;;;;9.68;6.60;;;;;;;;;;5087333;28;20288;-43
2023/07/18 04:11:01;;;;;;;8.55;6.78;;;;;;;;;;5057810;28;20572;-42
2023/07/18 04:13:28;;;;;;;9.77;6.22;;;;;;;;;;5068301;28;20306;-42
2023/07/18 04:15:58;;;;;;;7.40;5.80;;;;;;;;;;5069894;28;20227;-43
2023/07/18 04:18:25;;;;;;;7.97;5.35;;;;;;;;;;5072622;28;20235;-42
2023/07/18 04:21:00;;;;;;;7.15;5.10;;;;;;;;;;5069610;28;20219;-44
2023/07/18 04:23:27;;;;;;;6.90;4.20;;;;;;;;;;5062642;28;20239;-42
2023/07/18 04:25:56;;;;;;;6.93;3.92;;;;;;;;;;5072176;28;20233;-45
2023/07/18 04:28:23;;;;;;;4.43;3.28;;;;;;;;;;5072824;28;20227;-42
2023/07/18 04:30:50;;;;;;;5.25;2.83;;;;;;;;;;5072357;28;20684;-44
2023/07/18 04:33:18;;;;;;;3.20;2.53;;;;;;;;;;5072567;28;20219;-42
2023/07/18 04:35:45;;;;;;;3.28;2.42;;;;;;;;;;5072396;28;20229;-42
2023/07/18 04:38:13;;;;;;;5.15;2.10;;;;;;;;;;5072397;28;20235;-42
2023/07/18 04:40:41;;;;;;;3.55;2.67;;;;;;;;;;5071241;28;20219;-42
2023/07/18 04:43:09;;;;;;;5.10;2.30;;;;;;;;;;5088780;28;20218;-42
2023/07/18 04:45:44;;;;;;;2.92;2.45;;;;;;;;;;5092477;28;20271;-42
2023/07/18 04:48:13;;;;;;;4.88;1.83;;;;;;;;;;5091056;28;20264;-42
2023/07/18 04:50:41;;;;;;;3.38;2.05;;;;;;;;;;5091755;28;20264;-43
2023/07/18 04:53:09;;;;;;;2.20;1.75;;;;;;;;;;5092482;28;20557;-42
2023/07/18 04:55:37;;;;;;;2.47;1.67;;;;;;;;;;5085801;28;20223;-43
2023/07/18 04:58:07;;;;;;;3.20;1.63;;;;;;;;;;5070929;28;20247;-42
2023/07/18 05:00:35;;;;;;;3.35;1.40;;;;;;;;;;5072456;28;20574;-42
2023/07/18 05:03:02;;;;;;;2.42;1.52;;;;;;;;;;5071808;28;20280;-42
2023/07/18 05:05:30;;;;;;;3.42;1.25;;;;;;;;;;5074554;28;20593;-42
2023/07/18 05:08:00;;;;;;;2.75;1.67;;;;;;;;;;5075820;28;20224;-44
2023/07/18 05:10:27;;;;;;;3.20;1.10;;;;;;;;;;5081061;28;20221;-42
2023/07/18 05:12:56;;;;;;;1.98;1.10;;;;;;;;;;5095457;28;20235;-43
2023/07/18 05:15:23;;;;;;;2.10;1.30;;;;;;;;;;5077396;28;20218;-43
2023/07/18 05:17:50;;;;;;;2.47;1.40;;;;;;;;;;5056686;28;20204;-42
2023/07/18 05:20:19;;;;;;;1.90;1.25;;;;;;;;;;5056209;28;20208;-42
2023/07/18 05:22:46;;;;;;;6.13;1.38;;;;;;;;;;5056680;28;20247;-42
2023/07/18 05:25:15;;;;;;;3.05;0.90;;;;;;;;;;5056899;28;20196;-42
2023/07/18 05:27:43;;;;;;;1.65;1.05;;;;;;;;;;5056369;28;20211;-42
2023/07/18 05:30:12;;;;;;;2.10;0.95;;;;;;;;;;5056552;28;20208;-35
2023/07/18 05:32:40;;;;;;;1.42;1.00;;;;;;;;;;5056337;28;20200;-37
2023/07/18 05:35:11;;;;;;;7.72;1.00;;;;;;;;;;5056290;28;20208;-33
2023/07/18 05:37:38;;;;;;;1.10;0.80;;;;;;;;;;5056545;28;20268;-34
2023/07/18 05:40:08;;;;;;;1.10;0.70;;;;;;;;;;5056467;28;20199;-34
2023/07/18 05:42:39;;;;;;;1.10;0.80;;;;;;;;;;5056368;28;20254;-34
2023/07/18 05:45:08;;;;;;;1.13;0.80;;;;;;;;;;5056295;28;20207;-34
2023/07/18 05:47:36;;;;;;;1.15;0.80;;;;;;;;;;5056369;28;20218;-35
2023/07/18 05:50:05;;;;;;;0.88;0.82;;;;;;;;;;5056278;28;20286;-34
2023/07/18 05:52:33;;;;;;;2.42;0.82;;;;;;;;;;5056017;28;20207;-34
2023/07/18 05:55:00;;;;;;;2.03;1.00;;;;;;;;;;5056130;28;20295;-34
2023/07/18 05:57:27;;;;;;;1.17;0.73;;;;;;;;;;5054589;28;20234;-34
2023/07/18 05:59:54;;;;;;;1.13;0.75;;;;;;;;;;5056133;28;20204;-35
2023/07/18 06:02:22;;;;;;;3.08;1.15;;;;;;;;;;5056129;28;20217;-35
2023/07/18 06:04:49;;;;;;;1.45;0.90;;;;;;;;;;5055683;28;20592;-34
2023/07/18 06:07:16;;;;;;;1.17;0.90;;;;;;;;;;5055958;28;20255;-34
2023/07/18 06:09:43;;;;;;;1.17;0.77;;;;;;;;;;5054502;28;20200;-34
2023/07/18 06:12:11;;;;;;;1.08;0.82;;;;;;;;;;5055808;28;20200;-34
2023/07/18 06:14:39;;;;;;;1.15;0.60;;;;;;;;;;5055448;28;20208;-34
2023/07/18 06:17:06;;;;;;;0.73;0.57;;;;;;;;;;5054762;28;20672;-34
2023/07/18 06:19:33;;;;;;;1.10;0.77;;;;;;;;;;5070051;28;20674;-34
2023/07/18 06:22:02;;;;;;;2.08;1.25;;;;;;;;;;5055751;28;20239;-34
2023/07/18 06:24:29;;;;;;;2.30;0.70;;;;;;;;;;5055285;28;20580;-34
2023/07/18 06:26:57;;;;;;;1.98;1.10;;;;;;;;;;5055272;28;20211;-34
2023/07/18 06:29:24;;;;;;;1.88;1.00;;;;;;;;;;5055313;28;20208;-34
2023/07/18 06:31:51;;;;;;;1.27;0.75;;;;;;;;;;5055647;28;20211;-35
2023/07/18 06:34:18;;;;;;;2.97;1.17;;;;;;;;;;5055196;28;20607;-35
2023/07/18 06:36:46;;;;;;;0.95;0.75;;;;;;;;;;5055194;28;20303;-35
2023/07/18 06:39:16;;;;;;;1.48;1.00;;;;;;;;;;5055027;28;20204;-35
2023/07/18 06:41:44;;;;;;;1.35;0.70;;;;;;;;;;5055146;28;20671;-35
2023/07/18 06:44:14;;;;;;;1.08;0.80;;;;;;;;;;5057422;28;20230;-35
2023/07/18 06:46:42;;;;;;;1.30;0.82;;;;;;;;;;5064011;28;20595;-35
2023/07/18 06:49:11;;;;;;;1.55;0.70;;;;;;;;;;5063891;28;20212;-34
2023/07/18 06:51:39;;;;;;;1.00;0.75;;;;;;;;;;5063663;28;20202;-34
2023/07/18 06:54:05;;;;;;;1.45;0.70;;;;;;;;;;5065190;28;20294;-34
2023/07/18 06:56:33;;;;;;;2.80;0.70;;;;;;;;;;5064150;28;20200;-35
2023/07/18 06:59:01;;;;;;;0.60;0.60;;;;;;;;;;5063318;28;20667;-34
2023/07/18 07:01:28;;;;;;;3.90;1.13;;;;;;;;;;5063191;28;20196;-34
2023/07/18 07:03:56;;;;;;;1.17;0.75;;;;;;;;;;5063896;28;20223;-35
2023/07/18 07:06:23;;;;;;;1.00;0.65;;;;;;;;;;5062372;28;20218;-34
2023/07/18 07:08:51;;;;;;;1.45;0.90;;;;;;;;;;5064355;28;20620;-34
2023/07/18 07:11:18;;;;;;;1.20;0.90;;;;;;;;;;5071714;28;20211;-35
2023/07/18 07:13:45;;;;;;;1.00;0.80;;;;;;;;;;5074631;28;20630;-35
2023/07/18 07:16:13;;;;;;;0.75;0.60;;;;;;;;;;5074485;28;20225;-35
2023/07/18 07:18:40;;;;;;;0.75;0.65;;;;;;;;;;5073109;28;20725;-36
2023/07/18 07:21:07;;;;;;;1.65;0.90;;;;;;;;;;5073458;28;20211;-35
2023/07/18 07:23:34;;;;;;;2.38;1.50;;;;;;;;;;5074001;28;20273;-35
2023/07/18 07:26:01;;;;;;;1.08;0.70;;;;;;;;;;5074117;28;20199;-34
2023/07/18 07:28:28;;;;;;;2.30;1.15;;;;;;;;;;5073061;28;20195;-35
2023/07/18 07:30:56;;;;;;;1.75;0.82;;;;;;;;;;5074186;28;20210;-35
2023/07/18 07:33:23;;;;;;;1.25;0.50;;;;;;;;;;5074022;28;20207;-35
2023/07/18 07:35:53;;;;;;;2.30;0.70;;;;;;;;;;5073700;28;20257;-35
2023/07/18 07:38:20;;;;;;;0.75;0.60;;;;;;;;;;5073822;28;20203;-36
2023/07/18 07:40:47;;;;;;;1.77;1.00;;;;;;;;;;5069594;28;20197;-35
2023/07/18 07:43:14;;;;;;;1.63;0.80;;;;;;;;;;5068355;28;20273;-35
2023/07/18 07:45:41;;;;;;;1.35;0.70;;;;;;;;;;5072729;28;20235;-34
2023/07/18 07:48:08;;;;;;;1.88;0.90;;;;;;;;;;5062845;28;20311;-35
2023/07/18 07:50:36;;;;;;;1.45;0.80;;;;;;;;;;5064965;28;20606;-35
2023/07/18 07:53:03;;;;;;;0.90;0.70;;;;;;;;;;5064652;28;20223;-36
2023/07/18 07:55:30;;;;;;;1.83;0.70;;;;;;;;;;5067418;28;20269;-35
2023/07/18 07:57:57;;;;;;;0.82;0.60;;;;;;;;;;5072043;28;20231;-35
2023/07/18 08:00:24;;;;;;;0.98;0.80;;;;;;;;;;5072824;28;20621;-36
2023/07/18 08:02:52;;;;;;;0.68;0.65;;;;;;;;;;5072907;28;20223;-35
2023/07/18 08:05:20;;;;;;;1.33;0.77;;;;;;;;;;5072812;28;20255;-36
2023/07/18 08:07:48;;;;;;;2.30;0.90;;;;;;;;;;5072752;28;20227;-35
2023/07/18 08:10:16;;;;;;;1.05;0.80;;;;;;;;;;5072837;28;20219;-35
2023/07/18 08:12:43;;;;;;;1.65;0.73;;;;;;;;;;5072570;28;20220;-35
2023/07/18 08:15:10;;;;;;;0.75;0.70;;;;;;;;;;5072518;28;20227;-36
2023/07/18 08:17:37;;;;;;;1.20;0.82;;;;;;;;;;5072680;28;20318;-35
2023/07/18 08:20:08;;;;;;;1.10;0.80;;;;;;;;;;5072128;28;20219;-36
2023/07/18 08:22:35;;;;;;;1.80;0.82;;;;;;;;;;5072451;28;20278;-35
2023/07/18 08:25:03;;;;;;;2.22;0.80;;;;;;;;;;5073193;28;20235;-35
2023/07/18 08:27:31;;;;;;;1.10;0.75;;;;;;;;;;5073444;28;20245;-36
2023/07/18 08:29:58;;;;;;;0.75;0.52;;;;;;;;;;5067456;28;20204;-35
2023/07/18 08:32:25;;;;;;;1.63;0.90;;;;;;;;;;5061541;28;20228;-36
2023/07/18 08:34:55;;;;;;;1.58;0.77;;;;;;;;;;5068108;28;20223;-35
2023/07/18 08:37:22;;;;;;;1.15;0.80;;;;;;;;;;5060992;28;20224;-36
2023/07/18 08:39:50;;;;;;;0.98;0.68;;;;;;;;;;5065902;28;20254;-37
2023/07/18 08:42:19;;;;;;;0.80;0.68;;;;;;;;;;5070069;28;20234;-35
2023/07/18 08:44:49;;;;;;;1.20;0.65;;;;;;;;;;5076154;28;20230;-35
2023/07/18 08:47:16;;;;;;;1.50;0.80;;;;;;;;;;5056543;28;20242;-35
2023/07/18 08:49:43;;;;;;;1.15;0.75;;;;;;;;;;5056415;28;20224;-35
2023/07/18 08:52:10;;;;;;;1.88;0.70;;;;;;;;;;5056230;28;20246;-35
2023/07/18 08:54:38;;;;;;;1.00;0.60;;;;;;;;;;5056600;28;20235;-37
2023/07/18 08:57:06;;;;;;;1.00;0.70;;;;;;;;;;5056189;28;20227;-38
2023/07/18 08:59:34;;;;;;;1.92;0.90;;;;;;;;;;5055686;28;20724;-35
2023/07/18 09:02:01;;;;;;;1.38;0.60;;;;;;;;;;5055951;28;20220;-35
2023/07/18 09:04:30;;;;;;;2.22;0.90;;;;;;;;;;5056130;28;20265;-38
2023/07/18 09:06:59;;;;;;;1.25;0.60;;;;;;;;;;5056105;28;20227;-35
2023/07/18 09:09:27;;;;;;;0.60;0.35;;;;;;;;;;5056233;28;20224;-34
2023/07/18 09:11:57;;;;;;;1.35;0.88;;;;;;;;;;5056073;28;20227;-34
2023/07/18 09:14:32;;;;;;;1.23;0.80;;;;;;;;;;5056774;28;20663;-34
2023/07/18 09:17:01;;;;;;;2.28;0.70;;;;;;;;;;5054911;28;20727;-35
2023/07/18 09:19:46;;;;;;;1.98;0.95;;;;;;;;;;5054649;28;20204;-36
2023/07/18 09:22:15;;;;;;;0.93;0.70;;;;;;;;;;5054459;28;20231;-34
2023/07/18 09:24:42;;;;;;;1.63;0.80;;;;;;;;;;5054654;28;20249;-36
2023/07/18 09:27:16;;;;;;;0.90;0.60;;;;;;;;;;5054576;28;20204;-35
2023/07/18 09:29:47;;;;;;;1.35;0.77;;;;;;;;;;5054631;28;20208;-35
2023/07/18 09:32:19;;;;;;;0.88;0.68;;;;;;;;;;5056584;28;20254;-34
2023/07/18 09:34:57;;;;;;;2.15;0.80;;;;;;;;;;5056478;28;20188;-34
2023/07/18 09:37:24;;;;;;;0.82;0.50;;;;;;;;;;5055410;28;20611;-34
2023/07/18 09:39:51;;;;;;;2.50;1.10;;;;;;;;;;5056548;28;20228;-34
2023/07/18 09:42:19;;;;;;;2.28;0.70;;;;;;;;;;5056186;28;20200;-35
2023/07/18 09:44:50;;;;;;;1.30;0.93;;;;;;;;;;5056322;28;20242;-34
2023/07/18 09:47:20;;;;;;;4.20;1.00;;;;;;;;;;5055904;28;20545;-32
2023/07/18 09:49:48;;;;;;;0.90;0.63;;;;;;;;;;5068285;28;20223;-43
2023/07/18 09:52:18;;;;;;;1.63;0.90;;;;;;;;;;5073082;28;20340;-42
2023/07/18 09:54:46;;;;;;;1.20;0.70;;;;;;;;;;5062090;28;20238;-42
2023/07/18 09:57:14;;;;;;;2.67;0.60;;;;;;;;;;5074633;28;20199;-41
2023/07/18 09:59:41;;;;;;;0.75;0.60;;;;;;;;;;5076007;28;20234;-41
2023/07/18 10:02:10;;;;;;;1.30;0.80;;;;;;;;;;5076122;28;20211;-41
2023/07/18 10:04:38;;;;;;;1.30;0.68;;;;;;;;;;5075711;28;20231;-42
2023/07/18 10:07:08;;;;;;;1.38;0.80;;;;;;;;;;5075863;28;20203;-41
2023/07/18 10:09:36;;;;;;;1.77;0.80;;;;;;;;;;5066369;28;20198;-43
2023/07/18 10:12:03;;;;;;;1.00;0.73;;;;;;;;;;5063600;28;20274;-42
2023/07/18 10:14:46;;;;;;;1.08;0.90;;;;;;;;;;5064192;28;20219;-42
2023/07/18 10:17:37;;;;;;;0.88;0.70;;;;;;;;;;5065836;28;20212;-44
2023/07/18 10:20:10;;;;;;;1.58;0.88;;;;;;;;;;5072618;28;20226;-42
2023/07/18 10:22:46;;;;;;;1.60;1.30;;;;;;;;;;5074609;28;20228;-43
2023/07/18 10:25:13;;;;;;;1.17;0.80;;;;;;;;;;5068206;28;20237;-42
2023/07/18 10:27:43;;;;;;;1.63;0.60;;;;;;;;;;5068309;28;20227;-42
2023/07/18 10:30:19;;;;;;;1.85;0.82;;;;;;;;;;5067193;28;20215;-45
2023/07/18 10:32:57;;;;;;;1.80;1.05;;;;;;;;;;5063780;28;20271;-44
2023/07/18 10:35:26;;;;;;;1.85;1.00;;;;;;;;;;5068492;28;20736;-43
2023/07/18 10:38:08;;;;;;;0.98;0.70;;;;;;;;;;5055730;28;20220;-43
2023/07/18 10:40:36;;;;;;;0.60;0.60;;;;;;;;;;5073555;28;20223;-43
2023/07/18 10:43:08;;;;;;;1.60;1.00;;;;;;;;;;5073164;28;20234;-42
2023/07/18 10:45:41;;;;;;;1.00;0.90;;;;;;;;;;5073575;28;20264;-43
2023/07/18 10:48:18;;;;;;;2.47;0.90;;;;;;;;;;5074212;28;20700;-43
2023/07/18 10:50:47;;;;;;;2.47;1.00;;;;;;;;;;5074063;28;20219;-44
2023/07/18 10:53:20;;;;;;;2.70;1.00;;;;;;;;;;5074024;28;20223;-42
2023/07/18 10:55:48;;;;;;;1.67;1.13;;;;;;;;;;5070065;28;20583;-47
2023/07/18 10:58:18;;;;;;;2.03;1.10;;;;;;;;;;5067811;28;20285;-43
2023/07/18 11:00:47;;;;;;;4.28;1.05;;;;;;;;;;5059064;28;20278;-42
2023/07/18 11:03:22;;;;;;;1.23;0.90;;;;;;;;;;5053408;28;20250;-43
2023/07/18 11:05:50;;;;;;;1.13;0.93;;;;;;;;;;5048005;28;20691;-42
2023/07/18 11:08:28;;;;;;;1.95;1.00;;;;;;;;;;5072103;28;20687;-42
2023/07/18 11:10:58;;;;;;;1.10;0.50;;;;;;;;;;5086937;28;20641;-43
2023/07/18 11:13:34;;;;;;;1.25;0.85;;;;;;;;;;5090559;28;20223;-44
2023/07/18 11:16:04;;;;;;;1.65;0.90;;;;;;;;;;5074863;28;20733;-44
2023/07/18 11:18:34;;;;;;;1.40;0.90;;;;;;;;;;5066471;28;20227;-45
2023/07/18 11:21:05;;;;;;;1.88;0.70;;;;;;;;;;5070572;28;20250;-45
2023/07/18 11:23:35;;;;;;;2.65;1.13;;;;;;;;;;5065113;28;20218;-43
2023/07/18 11:26:15;;;;;;;1.15;0.65;;;;;;;;;;5054878;28;20243;-44
2023/07/18 11:28:44;;;;;;;2.25;0.93;;;;;;;;;;5058566;28;20285;-44
2023/07/18 11:31:25;;;;;;;0.90;0.60;;;;;;;;;;5063374;28;20303;-42
2023/07/18 11:34:06;;;;;;;1.00;0.75;;;;;;;;;;5061811;28;20760;-43
2023/07/18 11:36:37;;;;;;;2.22;0.82;;;;;;;;;;5065818;28;20224;-44
2023/07/18 11:39:19;;;;;;;2.03;0.85;;;;;;;;;;5066786;28;20218;-44
2023/07/18 11:41:48;;;;;;;1.17;0.70;;;;;;;;;;5058976;28;20254;-44
2023/07/18 11:44:23;;;;;;;1.25;0.70;;;;;;;;;;5053889;28;20232;-43
2023/07/18 11:46:54;;;;;;;3.50;0.77;;;;;;;;;;5068883;28;20237;-45
2023/07/18 11:49:35;;;;;;;0.68;0.57;;;;;;;;;;5073385;28;20231;-43
2023/07/18 11:52:05;;;;;;;1.08;0.70;;;;;;;;;;5059766;28;20227;-43
2023/07/18 11:54:35;;;;;;;1.48;0.70;;;;;;;;;;5051181;28;20227;-44
2023/07/18 11:57:04;;;;;;;0.98;0.50;;;;;;;;;;5064518;28;20301;-44
2023/07/18 11:59:32;;;;;;;2.05;0.80;;;;;;;;;;5071163;28;20219;-43
2023/07/18 12:02:00;;;;;;;0.93;0.70;;;;;;;;;;5071735;28;20223;-45
2023/07/18 12:04:27;;;;;;;0.68;0.50;;;;;;;;;;5073072;28;20219;-44
2023/07/18 12:06:55;;;;;;;1.15;0.70;;;;;;;;;;5067738;28;20222;-44
2023/07/18 12:09:23;;;;;;;1.50;0.77;;;;;;;;;;5062310;28;20621;-42
2023/07/18 12:11:50;;;;;;;0.80;0.60;;;;;;;;;;5061753;28;20219;-43
2023/07/18 12:14:17;;;;;;;1.75;0.95;;;;;;;;;;5061590;28;20227;-43
2023/07/18 12:16:45;;;;;;;0.88;0.55;;;;;;;;;;5062316;28;20215;-43
2023/07/18 12:19:13;;;;;;;0.63;0.60;;;;;;;;;;5061206;28;20224;-43
2023/07/18 12:21:40;;;;;;;1.05;0.80;;;;;;;;;;5060281;28;20285;-45
2023/07/18 12:24:07;;;;;;;1.33;0.63;;;;;;;;;;5062770;28;20238;-45
2023/07/18 12:26:34;;;;;;;2.42;0.65;;;;;;;;;;5061543;28;20231;-45
2023/07/18 12:29:03;;;;;;;0.60;0.52;;;;;;;;;;5061998;28;20215;-45
2023/07/18 12:31:33;;;;;;;0.90;0.73;;;;;;;;;;5063272;28;20261;-45
2023/07/18 12:34:00;;;;;;;0.77;0.43;;;;;;;;;;5063136;28;20223;-44
2023/07/18 12:36:27;;;;;;;0.75;0.55;;;;;;;;;;5060097;28;20302;-45
2023/07/18 12:38:54;;;;;;;1.48;0.73;;;;;;;;;;5060933;28;20680;-45
2023/07/18 12:41:21;;;;;;;1.75;0.70;;;;;;;;;;5063776;28;20260;-45
2023/07/18 12:43:50;;;;;;;1.02;0.57;;;;;;;;;;5057410;28;20230;-45
2023/07/18 12:46:17;;;;;;;1.35;0.70;;;;;;;;;;5061243;28;20246;-45
2023/07/18 12:48:46;;;;;;;1.05;0.70;;;;;;;;;;5051677;28;20232;-45
2023/07/18 12:51:16;;;;;;;1.02;0.50;;;;;;;;;;5055971;28;20215;-46
2023/07/18 12:53:44;;;;;;;1.45;0.57;;;;;;;;;;5071714;28;20230;-45
2023/07/18 12:56:11;;;;;;;0.82;0.50;;;;;;;;;;5064223;28;20223;-42
2023/07/18 12:58:38;;;;;;;1.13;0.50;;;;;;;;;;5059516;28;20236;-41
2023/07/18 13:01:05;;;;;;;0.85;0.73;;;;;;;;;;5057403;28;20216;-41
2023/07/18 13:03:33;;;;;;;0.73;0.40;;;;;;;;;;5057201;28;20222;-43
2023/07/18 13:06:01;;;;;;;0.95;0.65;;;;;;;;;;5060634;28;20223;-41
2023/07/18 13:08:28;;;;;;;2.47;0.60;;;;;;;;;;5067367;28;20230;-41
2023/07/18 13:10:55;;;;;;;0.90;0.60;;;;;;;;;;5073095;28;20242;-42
2023/07/18 13:13:23;;;;;;;0.73;0.40;;;;;;;;;;5070388;28;20223;-41
2023/07/18 13:15:50;;;;;;;0.45;0.45;;;;;;;;;;5064802;28;20211;-41
2023/07/18 13:18:17;;;;;;;0.65;0.43;;;;;;;;;;5063107;28;20235;-42
2023/07/18 13:20:45;;;;;;;0.80;0.50;;;;;;;;;;5061309;28;20224;-41
2023/07/18 13:23:12;;;;;;;1.08;0.68;;;;;;;;;;5063172;28;20239;-41
2023/07/18 13:25:39;;;;;;;0.95;0.70;;;;;;;;;;5060716;28;20224;-42
2023/07/18 13:28:06;;;;;;;0.90;0.50;;;;;;;;;;5066635;28;20220;-41
2023/07/18 13:30:35;;;;;;;1.13;0.60;;;;;;;;;;5061457;28;20216;-41
2023/07/18 13:33:04;;;;;;;0.82;0.50;;;;;;;;;;5075264;28;20238;-43
2023/07/18 13:35:31;;;;;;;0.60;0.20;;;;;;;;;;5073121;28;20214;-44
2023/07/18 13:37:59;;;;;;;0.50;0.38;;;;;;;;;;5070921;28;20219;-43
2023/07/18 13:40:26;;;;;;;1.05;0.50;;;;;;;;;;5070305;28;20284;-45
2023/07/18 13:42:53;;;;;;;0.77;0.40;;;;;;;;;;5081933;28;20227;-45
2023/07/18 13:45:20;;;;;;;0.93;0.52;;;;;;;;;;5074982;28;20227;-47
2023/07/18 13:47:48;;;;;;;0.80;0.50;;;;;;;;;;5064774;28;20694;-43
2023/07/18 13:50:15;;;;;;;0.77;0.50;;;;;;;;;;5072503;28;20251;-44
2023/07/18 13:52:57;;;;;;;1.27;0.50;;;;;;;;;;5065363;28;20313;-47
2023/07/18 13:55:24;;;;;;;1.88;0.60;;;;;;;;;;5066089;28;20748;-45
2023/07/18 13:57:53;;;;;;;0.93;0.40;;;;;;;;;;5070250;28;20223;-43
2023/07/18 14:00:20;;;;;;;0.75;0.45;;;;;;;;;;5072107;28;20222;-44
2023/07/18 14:02:49;;;;;;;1.38;0.40;;;;;;;;;;5060226;28;20231;-46
2023/07/18 14:05:17;;;;;;;1.67;0.60;;;;;;;;;;5070776;28;20665;-43
2023/07/18 14:07:45;;;;;;;0.75;0.50;;;;;;;;;;5060642;28;20227;-42
2023/07/18 14:10:12;;;;;;;0.57;0.40;;;;;;;;;;5060324;28;20238;-45
2023/07/18 14:12:40;;;;;;;0.57;0.38;;;;;;;;;;5074489;28;20310;-41
2023/07/18 14:15:08;;;;;;;0.75;0.50;;;;;;;;;;5069602;28;20325;-41
2023/07/18 14:17:35;;;;;;;0.85;0.30;;;;;;;;;;5068900;28;20696;-41
2023/07/18 14:20:03;;;;;;;1.95;0.60;;;;;;;;;;5085542;28;20253;-41
2023/07/18 14:22:31;;;;;;;0.73;0.47;;;;;;;;;;5079610;28;20239;-41
2023/07/18 14:24:58;;;;;;;0.77;0.45;;;;;;;;;;5074736;28;20859;-44
2023/07/18 14:27:25;;;;;;;0.60;0.40;;;;;;;;;;5073268;28;20695;-41
2023/07/18 14:29:52;;;;;;;0.90;0.40;;;;;;;;;;5074367;28;20257;-41
2023/07/18 14:32:19;;;;;;;1.70;0.60;;;;;;;;;;5074939;28;20204;-41
2023/07/18 14:34:47;;;;;;;0.32;0.30;;;;;;;;;;5074721;28;20282;-41
2023/07/18 14:37:14;;;;;;;1.08;0.60;;;;;;;;;;5073916;28;20207;-41
2023/07/18 14:39:41;;;;;;;0.90;0.40;;;;;;;;;;5075514;28;20212;-42
2023/07/18 14:42:09;;;;;;;0.85;0.30;;;;;;;;;;5078145;28;20199;-41
2023/07/18 14:44:36;;;;;;;0.63;0.30;;;;;;;;;;5075338;28;20231;-40
2023/07/18 14:47:04;;;;;;;3.92;0.43;;;;;;;;;;5070127;28;20269;-41
2023/07/18 14:49:31;;;;;;;0.93;0.30;;;;;;;;;;5080763;28;20203;-41